sensor_id;sensor_type;location;lat;lon;timestamp;temperature;humidity
58993;DHT22;44782;0.000;0.000;2023-07-20T00:00:16;24.20;50.50
58993;DHT22;44782;0.000;0.000;2023-07-20T00:02:32;24.10;50.40
58993;DHT22;44782;0.000;0.000;2023-07-20T00:04:48;24.10;50.40
58993;DHT22;44782;0.000;0.000;2023-07-20T00:07:04;24.10;50.40
58993;DHT22;44782;0.000;0.000;2023-07-20T00:09:20;24.10;50.30
58993;DHT22;44782;0.000;0.000;2023-07-20T00:11:38;24.10;50.40
58993;DHT22;44782;0.000;0.000;2023-07-20T00:13:54;24.10;50.30
58993;DHT22;44782;0.000;0.000;2023-07-20T00:16:10;24.10;50.30
58993;DHT22;44782;0.000;0.000;2023-07-20T00:18:26;24.10;50.40
58993;DHT22;44782;0.000;0.000;2023-07-20T00:20:41;24.10;50.30
58993;DHT22;44782;0.000;0.000;2023-07-20T00:22:58;24.10;50.30
58993;DHT22;44782;0.000;0.000;2023-07-20T00:25:14;24.10;50.30
58993;DHT22;44782;0.000;0.000;2023-07-20T00:27:30;24.10;50.30
58993;DHT22;44782;0.000;0.000;2023-07-20T00:29:45;24.10;50.20
58993;DHT22;44782;0.000;0.000;2023-07-20T00:32:01;24.10;50.30
58993;DHT22;44782;0.000;0.000;2023-07-20T00:34:20;24.10;50.20
58993;DHT22;44782;0.000;0.000;2023-07-20T00:36:36;24.00;50.20
58993;DHT22;44782;0.000;0.000;2023-07-20T00:38:52;24.00;50.10
58993;DHT22;44782;0.000;0.000;2023-07-20T00:41:07;24.10;50.20
58993;DHT22;44782;0.000;0.000;2023-07-20T00:43:23;24.00;50.20
58993;DHT22;44782;0.000;0.000;2023-07-20T00:45:39;24.00;50.10
58993;DHT22;44782;0.000;0.000;2023-07-20T00:47:55;24.00;50.10
58993;DHT22;44782;0.000;0.000;2023-07-20T00:50:12;24.00;50.10
58993;DHT22;44782;0.000;0.000;2023-07-20T00:52:28;24.00;50.10
58993;DHT22;44782;0.000;0.000;2023-07-20T00:54:44;24.00;50.20
58993;DHT22;44782;0.000;0.000;2023-07-20T00:57:01;24.00;50.10
58993;DHT22;44782;0.000;0.000;2023-07-20T00:59:17;24.00;50.10
58993;DHT22;44782;0.000;0.000;2023-07-20T01:01:33;24.00;50.00
58993;DHT22;44782;0.000;0.000;2023-07-20T01:03:49;24.00;50.10
58993;DHT22;44782;0.000;0.000;2023-07-20T01:09:25;24.00;49.90
58993;DHT22;44782;0.000;0.000;2023-07-20T01:13:44;23.90;50.00
58993;DHT22;44782;0.000;0.000;2023-07-20T01:16:02;23.90;50.00
58993;DHT22;44782;0.000;0.000;2023-07-20T01:18:18;23.90;49.90
58993;DHT22;44782;0.000;0.000;2023-07-20T01:20:34;23.90;49.90
58993;DHT22;44782;0.000;0.000;2023-07-20T01:32:23;23.90;49.90
58993;DHT22;44782;0.000;0.000;2023-07-20T01:34:40;23.90;49.80
58993;DHT22;44782;0.000;0.000;2023-07-20T01:36:57;23.90;50.60
58993;DHT22;44782;0.000;0.000;2023-07-20T01:39:13;23.90;49.80
58993;DHT22;44782;0.000;0.000;2023-07-20T01:41:29;23.90;49.80
58993;DHT22;44782;0.000;0.000;2023-07-20T01:43:45;23.90;49.90
58993;DHT22;44782;0.000;0.000;2023-07-20T01:46:01;23.90;49.80
58993;DHT22;44782;0.000;0.000;2023-07-20T01:48:17;23.90;49.80
58993;DHT22;44782;0.000;0.000;2023-07-20T01:50:32;23.80;49.80
58993;DHT22;44782;0.000;0.000;2023-07-20T01:52:49;23.90;49.80
58993;DHT22;44782;0.000;0.000;2023-07-20T01:55:05;23.90;49.80
58993;DHT22;44782;0.000;0.000;2023-07-20T01:57:21;23.80;49.80
58993;DHT22;44782;0.000;0.000;2023-07-20T01:59:37;23.80;49.70
58993;DHT22;44782;0.000;0.000;2023-07-20T02:01:52;23.80;49.70
58993;DHT22;44782;0.000;0.000;2023-07-20T02:04:08;23.80;49.70
58993;DHT22;44782;0.000;0.000;2023-07-20T02:06:24;23.80;49.70
58993;DHT22;44782;0.000;0.000;2023-07-20T02:08:39;23.80;49.70
58993;DHT22;44782;0.000;0.000;2023-07-20T02:10:55;23.80;49.70
58993;DHT22;44782;0.000;0.000;2023-07-20T02:13:11;23.80;49.70
58993;DHT22;44782;0.000;0.000;2023-07-20T02:15:26;23.80;49.80
58993;DHT22;44782;0.000;0.000;2023-07-20T02:17:43;23.80;49.70
58993;DHT22;44782;0.000;0.000;2023-07-20T02:19:58;23.80;49.70
58993;DHT22;44782;0.000;0.000;2023-07-20T02:22:14;23.70;49.70
58993;DHT22;44782;0.000;0.000;2023-07-20T02:24:30;23.80;49.70
58993;DHT22;44782;0.000;0.000;2023-07-20T02:26:46;23.70;50.00
58993;DHT22;44782;0.000;0.000;2023-07-20T02:29:01;23.70;49.60
58993;DHT22;44782;0.000;0.000;2023-07-20T02:31:20;23.70;49.60
58993;DHT22;44782;0.000;0.000;2023-07-20T02:33:35;23.70;49.70
58993;DHT22;44782;0.000;0.000;2023-07-20T02:35:51;23.70;49.60
58993;DHT22;44782;0.000;0.000;2023-07-20T02:38:07;23.70;49.60
58993;DHT22;44782;0.000;0.000;2023-07-20T02:40:23;23.70;49.70
58993;DHT22;44782;0.000;0.000;2023-07-20T02:42:38;23.70;49.60
58993;DHT22;44782;0.000;0.000;2023-07-20T02:44:55;23.70;49.60
58993;DHT22;44782;0.000;0.000;2023-07-20T02:47:11;23.70;49.60
58993;DHT22;44782;0.000;0.000;2023-07-20T02:49:27;23.70;49.60
58993;DHT22;44782;0.000;0.000;2023-07-20T02:51:42;23.70;49.60
58993;DHT22;44782;0.000;0.000;2023-07-20T02:53:59;23.70;49.60
58993;DHT22;44782;0.000;0.000;2023-07-20T02:56:14;23.70;49.60
58993;DHT22;44782;0.000;0.000;2023-07-20T02:58:30;23.70;49.60
58993;DHT22;44782;0.000;0.000;2023-07-20T03:00:46;23.70;49.60
58993;DHT22;44782;0.000;0.000;2023-07-20T03:03:02;23.70;49.70
58993;DHT22;44782;0.000;0.000;2023-07-20T03:05:17;23.60;49.60
58993;DHT22;44782;0.000;0.000;2023-07-20T03:07:33;23.70;49.60
58993;DHT22;44782;0.000;0.000;2023-07-20T03:09:49;23.60;49.60
58993;DHT22;44782;0.000;0.000;2023-07-20T03:12:05;23.60;49.60
58993;DHT22;44782;0.000;0.000;2023-07-20T03:14:21;23.60;49.50
58993;DHT22;44782;0.000;0.000;2023-07-20T03:16:37;23.60;49.60
58993;DHT22;44782;0.000;0.000;2023-07-20T03:18:53;23.60;49.50
58993;DHT22;44782;0.000;0.000;2023-07-20T03:21:10;23.60;49.50
58993;DHT22;44782;0.000;0.000;2023-07-20T03:23:29;23.60;49.50
58993;DHT22;44782;0.000;0.000;2023-07-20T03:25:45;23.60;49.60
58993;DHT22;44782;0.000;0.000;2023-07-20T03:28:01;23.60;49.60
58993;DHT22;44782;0.000;0.000;2023-07-20T03:30:16;23.60;49.50
58993;DHT22;44782;0.000;0.000;2023-07-20T03:32:32;23.60;49.50
58993;DHT22;44782;0.000;0.000;2023-07-20T03:34:48;23.60;50.30
58993;DHT22;44782;0.000;0.000;2023-07-20T03:37:05;23.60;49.50
58993;DHT22;44782;0.000;0.000;2023-07-20T03:39:22;23.60;49.60
58993;DHT22;44782;0.000;0.000;2023-07-20T03:41:38;23.60;49.50
58993;DHT22;44782;0.000;0.000;2023-07-20T03:43:54;23.60;49.60
58993;DHT22;44782;0.000;0.000;2023-07-20T03:46:10;23.50;49.50
58993;DHT22;44782;0.000;0.000;2023-07-20T03:48:25;23.50;49.50
58993;DHT22;44782;0.000;0.000;2023-07-20T03:50:41;23.50;49.50
58993;DHT22;44782;0.000;0.000;2023-07-20T03:52:57;23.50;49.50
58993;DHT22;44782;0.000;0.000;2023-07-20T03:55:13;23.50;49.50
58993;DHT22;44782;0.000;0.000;2023-07-20T03:57:29;23.50;49.50
58993;DHT22;44782;0.000;0.000;2023-07-20T03:59:48;23.50;49.50
58993;DHT22;44782;0.000;0.000;2023-07-20T04:02:04;23.50;49.50
58993;DHT22;44782;0.000;0.000;2023-07-20T04:04:21;23.50;49.50
58993;DHT22;44782;0.000;0.000;2023-07-20T04:06:37;23.50;49.50
58993;DHT22;44782;0.000;0.000;2023-07-20T04:08:53;23.50;49.50
58993;DHT22;44782;0.000;0.000;2023-07-20T04:11:08;23.50;49.50
58993;DHT22;44782;0.000;0.000;2023-07-20T04:13:24;23.40;49.40
58993;DHT22;44782;0.000;0.000;2023-07-20T04:15:39;23.50;49.50
58993;DHT22;44782;0.000;0.000;2023-07-20T04:17:55;23.40;49.50
58993;DHT22;44782;0.000;0.000;2023-07-20T04:20:11;23.50;49.50
58993;DHT22;44782;0.000;0.000;2023-07-20T04:22:28;23.50;49.50
58993;DHT22;44782;0.000;0.000;2023-07-20T04:24:44;23.40;49.40
58993;DHT22;44782;0.000;0.000;2023-07-20T04:27:00;23.50;49.50
58993;DHT22;44782;0.000;0.000;2023-07-20T04:29:15;23.40;49.40
58993;DHT22;44782;0.000;0.000;2023-07-20T04:31:31;23.40;49.50
58993;DHT22;44782;0.000;0.000;2023-07-20T04:33:48;23.40;49.40
58993;DHT22;44782;0.000;0.000;2023-07-20T04:36:04;23.40;49.40
58993;DHT22;44782;0.000;0.000;2023-07-20T04:38:20;23.40;49.40
58993;DHT22;44782;0.000;0.000;2023-07-20T04:40:36;23.40;49.40
58993;DHT22;44782;0.000;0.000;2023-07-20T04:42:52;23.40;49.40
58993;DHT22;44782;0.000;0.000;2023-07-20T04:45:08;23.40;49.40
58993;DHT22;44782;0.000;0.000;2023-07-20T04:47:24;23.40;49.50
58993;DHT22;44782;0.000;0.000;2023-07-20T04:49:39;23.40;49.50
58993;DHT22;44782;0.000;0.000;2023-07-20T04:51:55;23.40;49.50
58993;DHT22;44782;0.000;0.000;2023-07-20T04:54:10;23.40;49.40
58993;DHT22;44782;0.000;0.000;2023-07-20T04:56:26;23.40;49.40
58993;DHT22;44782;0.000;0.000;2023-07-20T04:58:42;23.40;49.40
58993;DHT22;44782;0.000;0.000;2023-07-20T05:00:57;23.40;49.40
58993;DHT22;44782;0.000;0.000;2023-07-20T05:03:13;23.30;50.10
58993;DHT22;44782;0.000;0.000;2023-07-20T05:05:29;23.30;49.30
58993;DHT22;44782;0.000;0.000;2023-07-20T05:07:45;23.40;49.40
58993;DHT22;44782;0.000;0.000;2023-07-20T05:10:00;23.40;49.40
58993;DHT22;44782;0.000;0.000;2023-07-20T05:12:16;23.30;49.40
58993;DHT22;44782;0.000;0.000;2023-07-20T05:14:32;23.40;49.40
58993;DHT22;44782;0.000;0.000;2023-07-20T05:16:47;23.40;49.50
58993;DHT22;44782;0.000;0.000;2023-07-20T05:19:03;23.30;49.50
58993;DHT22;44782;0.000;0.000;2023-07-20T05:21:18;23.30;49.50
58993;DHT22;44782;0.000;0.000;2023-07-20T05:23:34;23.30;49.50
58993;DHT22;44782;0.000;0.000;2023-07-20T05:25:57;23.30;49.60
58993;DHT22;44782;0.000;0.000;2023-07-20T05:28:13;23.40;49.50
58993;DHT22;44782;0.000;0.000;2023-07-20T05:30:28;23.30;49.60
58993;DHT22;44782;0.000;0.000;2023-07-20T05:32:44;23.30;49.50
58993;DHT22;44782;0.000;0.000;2023-07-20T05:35:07;23.30;49.60
58993;DHT22;44782;0.000;0.000;2023-07-20T05:37:23;23.30;49.50
58993;DHT22;44782;0.000;0.000;2023-07-20T05:39:39;23.30;49.60
58993;DHT22;44782;0.000;0.000;2023-07-20T05:41:55;23.30;49.60
58993;DHT22;44782;0.000;0.000;2023-07-20T05:44:10;23.30;49.60
58993;DHT22;44782;0.000;0.000;2023-07-20T05:46:26;23.30;49.60
58993;DHT22;44782;0.000;0.000;2023-07-20T05:48:42;23.30;49.60
58993;DHT22;44782;0.000;0.000;2023-07-20T05:50:57;23.20;49.50
58993;DHT22;44782;0.000;0.000;2023-07-20T05:53:13;23.30;49.60
58993;DHT22;44782;0.000;0.000;2023-07-20T05:55:29;23.30;49.60
58993;DHT22;44782;0.000;0.000;2023-07-20T05:57:44;23.30;49.60
58993;DHT22;44782;0.000;0.000;2023-07-20T06:00:00;23.30;49.70
58993;DHT22;44782;0.000;0.000;2023-07-20T06:02:16;23.20;49.60
58993;DHT22;44782;0.000;0.000;2023-07-20T06:04:32;23.20;49.70
58993;DHT22;44782;0.000;0.000;2023-07-20T06:06:47;23.30;49.60
58993;DHT22;44782;0.000;0.000;2023-07-20T06:09:03;23.20;49.60
58993;DHT22;44782;0.000;0.000;2023-07-20T06:11:19;23.20;49.60
58993;DHT22;44782;0.000;0.000;2023-07-20T06:13:35;23.20;49.70
58993;DHT22;44782;0.000;0.000;2023-07-20T06:15:51;23.20;49.70
58993;DHT22;44782;0.000;0.000;2023-07-20T06:18:06;23.20;49.60
58993;DHT22;44782;0.000;0.000;2023-07-20T06:20:22;23.20;49.60
58993;DHT22;44782;0.000;0.000;2023-07-20T06:22:38;23.30;49.70
58993;DHT22;44782;0.000;0.000;2023-07-20T06:24:53;23.20;49.60
58993;DHT22;44782;0.000;0.000;2023-07-20T06:27:09;23.20;49.70
58993;DHT22;44782;0.000;0.000;2023-07-20T06:29:25;23.20;49.60
58993;DHT22;44782;0.000;0.000;2023-07-20T06:31:40;23.20;49.60
58993;DHT22;44782;0.000;0.000;2023-07-20T06:33:56;23.20;49.60
58993;DHT22;44782;0.000;0.000;2023-07-20T06:36:12;23.20;49.60
58993;DHT22;44782;0.000;0.000;2023-07-20T06:38:27;23.20;49.60
58993;DHT22;44782;0.000;0.000;2023-07-20T06:40:43;23.20;49.60
58993;DHT22;44782;0.000;0.000;2023-07-20T06:42:59;23.20;49.60
58993;DHT22;44782;0.000;0.000;2023-07-20T06:45:15;23.20;49.60
58993;DHT22;44782;0.000;0.000;2023-07-20T06:47:31;23.20;49.60
58993;DHT22;44782;0.000;0.000;2023-07-20T06:49:46;23.20;49.60
58993;DHT22;44782;0.000;0.000;2023-07-20T06:52:02;23.20;49.70
58993;DHT22;44782;0.000;0.000;2023-07-20T06:54:18;23.20;49.60
58993;DHT22;44782;0.000;0.000;2023-07-20T06:56:33;23.20;49.60
58993;DHT22;44782;0.000;0.000;2023-07-20T06:58:49;23.20;49.60
58993;DHT22;44782;0.000;0.000;2023-07-20T07:01:06;23.20;49.60
58993;DHT22;44782;0.000;0.000;2023-07-20T07:03:22;23.20;49.60
58993;DHT22;44782;0.000;0.000;2023-07-20T07:05:37;23.20;49.60
58993;DHT22;44782;0.000;0.000;2023-07-20T07:07:53;23.20;49.60
58993;DHT22;44782;0.000;0.000;2023-07-20T07:10:09;23.20;49.60
58993;DHT22;44782;0.000;0.000;2023-07-20T07:12:25;23.20;49.70
58993;DHT22;44782;0.000;0.000;2023-07-20T07:14:40;23.10;49.60
58993;DHT22;44782;0.000;0.000;2023-07-20T07:16:56;23.20;49.60
58993;DHT22;44782;0.000;0.000;2023-07-20T07:19:12;23.20;49.60
58993;DHT22;44782;0.000;0.000;2023-07-20T07:21:27;23.20;49.60
58993;DHT22;44782;0.000;0.000;2023-07-20T07:23:43;23.20;49.60
58993;DHT22;44782;0.000;0.000;2023-07-20T07:25:59;23.20;49.60
58993;DHT22;44782;0.000;0.000;2023-07-20T07:28:14;23.20;49.60
58993;DHT22;44782;0.000;0.000;2023-07-20T07:30:30;23.20;49.50
58993;DHT22;44782;0.000;0.000;2023-07-20T07:32:46;23.20;49.60
58993;DHT22;44782;0.000;0.000;2023-07-20T07:35:01;23.20;49.60
58993;DHT22;44782;0.000;0.000;2023-07-20T07:37:17;23.20;49.50
58993;DHT22;44782;0.000;0.000;2023-07-20T07:39:35;23.20;50.30
58993;DHT22;44782;0.000;0.000;2023-07-20T07:41:51;23.20;49.60
58993;DHT22;44782;0.000;0.000;2023-07-20T07:44:06;23.20;49.60
58993;DHT22;44782;0.000;0.000;2023-07-20T07:46:22;23.20;49.60
58993;DHT22;44782;0.000;0.000;2023-07-20T07:48:38;23.20;49.60
58993;DHT22;44782;0.000;0.000;2023-07-20T07:50:53;23.30;49.50
58993;DHT22;44782;0.000;0.000;2023-07-20T07:53:09;23.20;49.50
58993;DHT22;44782;0.000;0.000;2023-07-20T07:55:25;23.20;49.50
58993;DHT22;44782;0.000;0.000;2023-07-20T07:57:44;23.20;49.50
58993;DHT22;44782;0.000;0.000;2023-07-20T08:00:00;23.20;49.50
58993;DHT22;44782;0.000;0.000;2023-07-20T08:02:15;23.20;49.60
58993;DHT22;44782;0.000;0.000;2023-07-20T08:04:31;23.20;49.50
58993;DHT22;44782;0.000;0.000;2023-07-20T08:06:47;23.20;49.50
58993;DHT22;44782;0.000;0.000;2023-07-20T08:09:02;23.30;49.60
58993;DHT22;44782;0.000;0.000;2023-07-20T08:11:18;23.20;49.50
58993;DHT22;44782;0.000;0.000;2023-07-20T08:13:35;23.30;49.60
58993;DHT22;44782;0.000;0.000;2023-07-20T08:15:51;23.20;49.50
58993;DHT22;44782;0.000;0.000;2023-07-20T08:18:09;23.30;49.60
58993;DHT22;44782;0.000;0.000;2023-07-20T08:20:25;23.30;49.60
58993;DHT22;44782;0.000;0.000;2023-07-20T08:22:42;23.30;49.60
58993;DHT22;44782;0.000;0.000;2023-07-20T08:24:57;23.30;49.60
58993;DHT22;44782;0.000;0.000;2023-07-20T08:27:13;23.30;49.60
58993;DHT22;44782;0.000;0.000;2023-07-20T08:29:29;23.30;49.60
58993;DHT22;44782;0.000;0.000;2023-07-20T08:31:45;23.30;49.60
58993;DHT22;44782;0.000;0.000;2023-07-20T08:34:01;23.30;49.60
58993;DHT22;44782;0.000;0.000;2023-07-20T08:36:17;23.30;49.60
58993;DHT22;44782;0.000;0.000;2023-07-20T08:38:32;23.30;49.60
58993;DHT22;44782;0.000;0.000;2023-07-20T08:40:48;23.30;49.60
58993;DHT22;44782;0.000;0.000;2023-07-20T08:43:04;23.30;49.60
58993;DHT22;44782;0.000;0.000;2023-07-20T08:45:22;23.30;49.60
58993;DHT22;44782;0.000;0.000;2023-07-20T08:47:39;23.30;49.60
58993;DHT22;44782;0.000;0.000;2023-07-20T08:49:56;23.30;49.70
58993;DHT22;44782;0.000;0.000;2023-07-20T08:52:12;23.20;49.60
58993;DHT22;44782;0.000;0.000;2023-07-20T08:54:30;23.20;49.60
58993;DHT22;44782;0.000;0.000;2023-07-20T08:56:50;23.20;49.60
58993;DHT22;44782;0.000;0.000;2023-07-20T08:59:08;23.30;49.60
58993;DHT22;44782;0.000;0.000;2023-07-20T09:01:24;23.30;49.60
58993;DHT22;44782;0.000;0.000;2023-07-20T09:03:41;23.30;49.60
58993;DHT22;44782;0.000;0.000;2023-07-20T09:05:59;23.30;49.60
58993;DHT22;44782;0.000;0.000;2023-07-20T09:08:15;23.30;49.70
58993;DHT22;44782;0.000;0.000;2023-07-20T09:10:31;23.30;49.60
58993;DHT22;44782;0.000;0.000;2023-07-20T09:12:47;23.30;49.70
58993;DHT22;44782;0.000;0.000;2023-07-20T09:15:04;23.30;49.70
58993;DHT22;44782;0.000;0.000;2023-07-20T09:17:20;23.30;49.60
58993;DHT22;44782;0.000;0.000;2023-07-20T09:19:35;23.30;49.60
58993;DHT22;44782;0.000;0.000;2023-07-20T09:21:52;23.30;49.60
58993;DHT22;44782;0.000;0.000;2023-07-20T09:24:08;23.30;49.60
58993;DHT22;44782;0.000;0.000;2023-07-20T09:26:24;23.30;49.60
58993;DHT22;44782;0.000;0.000;2023-07-20T09:28:48;23.30;49.60
58993;DHT22;44782;0.000;0.000;2023-07-20T09:31:15;23.30;49.60
58993;DHT22;44782;0.000;0.000;2023-07-20T09:33:32;23.30;49.60
58993;DHT22;44782;0.000;0.000;2023-07-20T09:35:48;23.30;49.70
58993;DHT22;44782;0.000;0.000;2023-07-20T09:38:04;23.30;49.70
58993;DHT22;44782;0.000;0.000;2023-07-20T09:40:20;23.30;49.70
58993;DHT22;44782;0.000;0.000;2023-07-20T09:42:36;23.30;49.60
58993;DHT22;44782;0.000;0.000;2023-07-20T09:44:53;23.30;49.60
58993;DHT22;44782;0.000;0.000;2023-07-20T09:47:09;23.30;49.60
58993;DHT22;44782;0.000;0.000;2023-07-20T09:49:24;23.30;50.30
58993;DHT22;44782;0.000;0.000;2023-07-20T09:51:41;23.30;49.60
58993;DHT22;44782;0.000;0.000;2023-07-20T09:53:58;23.30;49.60
58993;DHT22;44782;0.000;0.000;2023-07-20T09:56:14;23.30;49.60
58993;DHT22;44782;0.000;0.000;2023-07-20T09:58:32;23.30;49.50
58993;DHT22;44782;0.000;0.000;2023-07-20T10:00:51;23.30;49.50
58993;DHT22;44782;0.000;0.000;2023-07-20T10:03:07;23.30;49.50
58993;DHT22;44782;0.000;0.000;2023-07-20T10:05:24;23.30;49.50
58993;DHT22;44782;0.000;0.000;2023-07-20T10:07:48;23.30;50.20
58993;DHT22;44782;0.000;0.000;2023-07-20T10:10:04;23.30;49.50
58993;DHT22;44782;0.000;0.000;2023-07-20T10:12:22;23.30;49.50
58993;DHT22;44782;0.000;0.000;2023-07-20T10:14:42;23.30;49.40
58993;DHT22;44782;0.000;0.000;2023-07-20T10:17:01;23.30;49.30
58993;DHT22;44782;0.000;0.000;2023-07-20T10:19:34;23.30;49.30
58993;DHT22;44782;0.000;0.000;2023-07-20T10:22:00;23.40;49.20
58993;DHT22;44782;0.000;0.000;2023-07-20T10:24:18;23.30;49.10
58993;DHT22;44782;0.000;0.000;2023-07-20T10:26:34;23.40;49.20
58993;DHT22;44782;0.000;0.000;2023-07-20T10:28:50;23.40;49.20
58993;DHT22;44782;0.000;0.000;2023-07-20T10:31:12;23.30;49.10
58993;DHT22;44782;0.000;0.000;2023-07-20T10:33:28;23.40;49.10
58993;DHT22;44782;0.000;0.000;2023-07-20T10:36:10;23.30;49.10
58993;DHT22;44782;0.000;0.000;2023-07-20T10:41:21;23.40;48.80
58993;DHT22;44782;0.000;0.000;2023-07-20T10:43:42;23.40;48.80
58993;DHT22;44782;0.000;0.000;2023-07-20T10:45:58;23.40;48.90
58993;DHT22;44782;0.000;0.000;2023-07-20T10:48:22;23.30;48.90
58993;DHT22;44782;0.000;0.000;2023-07-20T10:50:38;23.40;48.70
58993;DHT22;44782;0.000;0.000;2023-07-20T10:53:26;23.40;48.90
58993;DHT22;44782;0.000;0.000;2023-07-20T10:55:42;23.40;48.50
58993;DHT22;44782;0.000;0.000;2023-07-20T10:58:19;23.30;48.80
58993;DHT22;44782;0.000;0.000;2023-07-20T11:00:59;23.40;48.40
58993;DHT22;44782;0.000;0.000;2023-07-20T11:03:27;23.40;48.40
58993;DHT22;44782;0.000;0.000;2023-07-20T11:05:43;23.40;48.50
58993;DHT22;44782;0.000;0.000;2023-07-20T11:07:59;23.40;48.80
58993;DHT22;44782;0.000;0.000;2023-07-20T11:10:15;23.40;48.80
58993;DHT22;44782;0.000;0.000;2023-07-20T11:12:33;23.40;48.70
58993;DHT22;44782;0.000;0.000;2023-07-20T11:15:00;23.40;48.70
58993;DHT22;44782;0.000;0.000;2023-07-20T11:17:15;23.40;48.20
58993;DHT22;44782;0.000;0.000;2023-07-20T11:19:35;23.40;48.50
58993;DHT22;44782;0.000;0.000;2023-07-20T11:21:53;23.40;48.60
58993;DHT22;44782;0.000;0.000;2023-07-20T11:24:08;23.40;48.50
58993;DHT22;44782;0.000;0.000;2023-07-20T11:26:25;23.40;48.50
58993;DHT22;44782;0.000;0.000;2023-07-20T11:28:41;23.40;48.40
58993;DHT22;44782;0.000;0.000;2023-07-20T11:30:57;23.40;48.40
58993;DHT22;44782;0.000;0.000;2023-07-20T11:33:13;23.40;48.50
58993;DHT22;44782;0.000;0.000;2023-07-20T11:35:28;23.40;48.50
58993;DHT22;44782;0.000;0.000;2023-07-20T11:37:44;23.40;48.50
58993;DHT22;44782;0.000;0.000;2023-07-20T11:40:00;23.40;48.40
58993;DHT22;44782;0.000;0.000;2023-07-20T11:42:19;23.50;48.50
58993;DHT22;44782;0.000;0.000;2023-07-20T11:44:35;23.50;49.00
58993;DHT22;44782;0.000;0.000;2023-07-20T11:46:51;23.50;48.40
58993;DHT22;44782;0.000;0.000;2023-07-20T11:49:07;23.50;48.40
58993;DHT22;44782;0.000;0.000;2023-07-20T11:51:23;23.50;48.30
58993;DHT22;44782;0.000;0.000;2023-07-20T11:53:39;23.40;48.20
58993;DHT22;44782;0.000;0.000;2023-07-20T11:55:55;23.50;48.20
58993;DHT22;44782;0.000;0.000;2023-07-20T11:58:12;23.50;48.20
58993;DHT22;44782;0.000;0.000;2023-07-20T12:00:28;23.50;48.20
58993;DHT22;44782;0.000;0.000;2023-07-20T12:02:43;23.50;48.20
58993;DHT22;44782;0.000;0.000;2023-07-20T12:04:59;23.50;48.10
58993;DHT22;44782;0.000;0.000;2023-07-20T12:07:15;23.50;48.00
58993;DHT22;44782;0.000;0.000;2023-07-20T12:09:30;23.50;47.90
58993;DHT22;44782;0.000;0.000;2023-07-20T12:11:49;23.50;47.90
58993;DHT22;44782;0.000;0.000;2023-07-20T12:14:08;23.50;47.90
58993;DHT22;44782;0.000;0.000;2023-07-20T12:16:27;23.50;48.00
58993;DHT22;44782;0.000;0.000;2023-07-20T12:18:43;23.50;48.10
58993;DHT22;44782;0.000;0.000;2023-07-20T12:20:59;23.50;48.10
58993;DHT22;44782;0.000;0.000;2023-07-20T12:23:15;23.60;48.10
58993;DHT22;44782;0.000;0.000;2023-07-20T12:25:43;23.50;48.10
58993;DHT22;44782;0.000;0.000;2023-07-20T12:28:10;23.60;47.80
58993;DHT22;44782;0.000;0.000;2023-07-20T12:30:26;23.60;47.80
58993;DHT22;44782;0.000;0.000;2023-07-20T12:32:42;23.60;48.10
58993;DHT22;44782;0.000;0.000;2023-07-20T12:34:57;23.60;48.10
58993;DHT22;44782;0.000;0.000;2023-07-20T12:37:18;23.60;48.10
58993;DHT22;44782;0.000;0.000;2023-07-20T12:39:33;23.60;48.10
58993;DHT22;44782;0.000;0.000;2023-07-20T12:41:49;23.60;48.10
58993;DHT22;44782;0.000;0.000;2023-07-20T12:44:05;23.60;48.10
58993;DHT22;44782;0.000;0.000;2023-07-20T12:46:20;23.60;48.00
58993;DHT22;44782;0.000;0.000;2023-07-20T12:48:37;23.60;48.00
58993;DHT22;44782;0.000;0.000;2023-07-20T12:50:55;23.60;48.00
58993;DHT22;44782;0.000;0.000;2023-07-20T12:53:11;23.60;48.10
58993;DHT22;44782;0.000;0.000;2023-07-20T12:55:26;23.60;48.00
58993;DHT22;44782;0.000;0.000;2023-07-20T12:57:43;23.60;48.00
58993;DHT22;44782;0.000;0.000;2023-07-20T12:59:59;23.60;48.00
58993;DHT22;44782;0.000;0.000;2023-07-20T13:02:14;23.60;48.10
58993;DHT22;44782;0.000;0.000;2023-07-20T13:04:31;23.60;48.00
58993;DHT22;44782;0.000;0.000;2023-07-20T13:06:46;23.60;48.00
58993;DHT22;44782;0.000;0.000;2023-07-20T13:09:02;23.70;48.00
58993;DHT22;44782;0.000;0.000;2023-07-20T13:11:18;23.70;48.00
58993;DHT22;44782;0.000;0.000;2023-07-20T13:13:34;23.70;48.00
58993;DHT22;44782;0.000;0.000;2023-07-20T13:15:49;23.70;47.90
58993;DHT22;44782;0.000;0.000;2023-07-20T13:18:05;23.70;47.90
58993;DHT22;44782;0.000;0.000;2023-07-20T13:20:21;23.70;47.90
58993;DHT22;44782;0.000;0.000;2023-07-20T13:22:39;23.70;47.90
58993;DHT22;44782;0.000;0.000;2023-07-20T13:24:55;23.70;47.90
58993;DHT22;44782;0.000;0.000;2023-07-20T13:27:11;23.70;47.90
58993;DHT22;44782;0.000;0.000;2023-07-20T13:29:27;23.70;47.80
58993;DHT22;44782;0.000;0.000;2023-07-20T13:31:42;23.70;47.70
58993;DHT22;44782;0.000;0.000;2023-07-20T13:33:58;23.70;47.70
58993;DHT22;44782;0.000;0.000;2023-07-20T13:36:14;23.70;47.70
58993;DHT22;44782;0.000;0.000;2023-07-20T13:38:30;23.70;47.60
58993;DHT22;44782;0.000;0.000;2023-07-20T13:40:45;23.70;47.50
58993;DHT22;44782;0.000;0.000;2023-07-20T13:43:01;23.70;47.50
58993;DHT22;44782;0.000;0.000;2023-07-20T13:45:17;23.70;47.50
58993;DHT22;44782;0.000;0.000;2023-07-20T13:47:33;23.70;47.50
58993;DHT22;44782;0.000;0.000;2023-07-20T13:49:48;23.70;47.50
58993;DHT22;44782;0.000;0.000;2023-07-20T13:52:04;23.70;47.40
58993;DHT22;44782;0.000;0.000;2023-07-20T13:54:20;23.70;47.40
58993;DHT22;44782;0.000;0.000;2023-07-20T13:56:36;23.70;47.40
58993;DHT22;44782;0.000;0.000;2023-07-20T13:58:51;23.70;47.40
58993;DHT22;44782;0.000;0.000;2023-07-20T14:01:07;23.70;47.30
58993;DHT22;44782;0.000;0.000;2023-07-20T14:03:23;23.70;47.40
58993;DHT22;44782;0.000;0.000;2023-07-20T14:05:38;23.80;47.40
58993;DHT22;44782;0.000;0.000;2023-07-20T14:07:54;23.80;47.40
58993;DHT22;44782;0.000;0.000;2023-07-20T14:10:10;23.80;47.40
58993;DHT22;44782;0.000;0.000;2023-07-20T14:12:25;23.80;47.40
58993;DHT22;44782;0.000;0.000;2023-07-20T14:14:41;23.80;47.30
58993;DHT22;44782;0.000;0.000;2023-07-20T14:16:57;23.80;47.30
58993;DHT22;44782;0.000;0.000;2023-07-20T14:19:12;23.80;47.30
58993;DHT22;44782;0.000;0.000;2023-07-20T14:21:28;23.80;47.30
58993;DHT22;44782;0.000;0.000;2023-07-20T14:23:48;23.80;47.30
58993;DHT22;44782;0.000;0.000;2023-07-20T14:26:05;23.80;47.20
58993;DHT22;44782;0.000;0.000;2023-07-20T14:28:21;23.80;47.30
58993;DHT22;44782;0.000;0.000;2023-07-20T14:30:37;23.90;47.30
58993;DHT22;44782;0.000;0.000;2023-07-20T14:32:52;23.90;47.30
58993;DHT22;44782;0.000;0.000;2023-07-20T14:35:08;23.90;47.20
58993;DHT22;44782;0.000;0.000;2023-07-20T14:37:24;23.90;47.20
58993;DHT22;44782;0.000;0.000;2023-07-20T14:39:40;23.90;47.10
58993;DHT22;44782;0.000;0.000;2023-07-20T14:41:56;23.90;47.10
58993;DHT22;44782;0.000;0.000;2023-07-20T14:44:11;23.90;47.00
58993;DHT22;44782;0.000;0.000;2023-07-20T14:46:27;23.90;47.00
58993;DHT22;44782;0.000;0.000;2023-07-20T14:48:43;23.90;47.00
58993;DHT22;44782;0.000;0.000;2023-07-20T14:50:58;24.00;47.00
58993;DHT22;44782;0.000;0.000;2023-07-20T14:53:14;24.00;47.00